Time;durP1;ratioP1;P1;durP2;ratioP2;P2;SDS_P1;SDS_P2;PMS_P1;PMS_P2;Temp;Humidity;BMP_temperature;BMP_pressure;BME280_temperature;BME280_humidity;BME280_pressure;Samples;Min_cycle;Max_cycle;Signal;HPM_P1;HPM_P2
2023/07/22 00:00:30;;;;;;;;;10.75;10.25;;;;;17.11;65.42;101345.97;5052552;28;9467;-68
2023/07/22 00:02:57;;;;;;;;;8.67;8.67;;;;;17.09;65.71;101350.78;5036327;28;9394;-67
2023/07/22 00:05:25;;;;;;;;;9.67;8.33;;;;;17.06;65.88;101346.63;5048522;28;9382;-67
2023/07/22 00:07:52;;;;;;;;;6.00;5.00;;;;;17.03;65.93;101349.78;5052474;28;9384;-68
2023/07/22 00:10:19;;;;;;;;;7.67;7.00;;;;;17.03;65.76;101347.06;5052918;28;9990;-67
2023/07/22 00:12:45;;;;;;;;;9.50;9.50;;;;;17.02;65.54;101345.41;5052797;28;10081;-67
2023/07/22 00:15:12;;;;;;;;;10.00;10.00;;;;;16.96;65.87;101349.84;5067466;28;9545;-68
2023/07/22 00:17:40;;;;;;;;;8.25;8.00;;;;;16.95;66.18;101345.47;5069892;28;9498;-68
2023/07/22 00:20:10;;;;;;;;;9.25;9.00;;;;;16.98;66.10;101341.50;5069707;28;9519;-68
2023/07/22 00:22:40;;;;;;;;;12.00;10.00;;;;;16.98;66.16;101339.59;5070139;28;9544;-68
2023/07/22 00:25:10;;;;;;;;;12.00;8.25;;;;;16.98;65.81;101341.50;5068661;28;9351;-67
2023/07/22 00:27:38;;;;;;;;;12.25;9.00;;;;;16.92;66.08;101336.94;5070283;28;9324;-70
2023/07/22 00:30:06;;;;;;;;;10.50;9.75;;;;;16.91;66.17;101343.44;5051496;28;9544;-66
2023/07/22 00:32:33;;;;;;;;;11.00;10.50;;;;;16.90;66.20;101337.16;5052192;28;9585;-67
2023/07/22 00:34:59;;;;;;;;;9.75;8.50;;;;;16.89;66.29;101334.66;5039695;28;9521;-66
2023/07/22 00:37:26;;;;;;;;;10.25;8.25;;;;;16.88;66.34;101333.00;5069452;28;9454;-68
2023/07/22 00:39:52;;;;;;;;;16.00;11.00;;;;;16.87;66.42;101336.78;5073636;22;9540;-66
2023/07/22 00:42:20;;;;;;;;;11.00;9.33;;;;;16.85;66.55;101328.00;5046993;28;10067;-66
2023/07/22 00:44:47;;;;;;;;;10.75;10.00;;;;;16.85;66.51;101331.53;5031560;28;9466;-67
2023/07/22 00:47:14;;;;;;;;;12.50;10.25;;;;;16.83;66.45;101339.09;5049654;28;10251;-66
2023/07/22 00:49:41;;;;;;;;;12.25;12.25;;;;;16.78;66.69;101333.50;5049146;28;9383;-67
2023/07/22 00:52:08;;;;;;;;;12.25;11.75;;;;;16.73;66.68;101331.47;5050327;28;9672;-66
2023/07/22 00:54:34;;;;;;;;;12.75;11.00;;;;;16.71;67.06;101330.81;5031587;28;9593;-66
2023/07/22 00:57:01;;;;;;;;;12.00;12.00;;;;;16.72;67.25;101327.03;5048237;28;9862;-66
2023/07/22 00:59:28;;;;;;;;;11.50;11.00;;;;;16.72;67.13;101327.03;5015160;28;9763;-67
2023/07/22 01:01:55;;;;;;;;;11.00;10.25;;;;;16.73;67.16;101317.03;5030874;28;9858;-66
2023/07/22 01:04:23;;;;;;;;;11.00;9.75;;;;;16.74;67.34;101311.38;5022691;28;9810;-67
2023/07/22 01:06:50;;;;;;;;;9.33;9.00;;;;;16.76;67.20;101309.25;5013384;28;9673;-66
2023/07/22 01:09:17;;;;;;;;;12.00;11.50;;;;;16.76;67.22;101303.00;5031608;28;9320;-66
2023/07/22 01:11:43;;;;;;;;;11.75;11.50;;;;;16.75;67.36;101304.88;5049264;28;9548;-66
2023/07/22 01:14:10;;;;;;;;;14.25;12.00;;;;;16.75;67.05;101307.59;5049579;28;9597;-66
2023/07/22 01:16:36;;;;;;;;;17.00;17.00;;;;;16.75;67.05;101302.16;5031588;28;9626;-67
2023/07/22 01:19:05;;;;;;;;;10.00;10.00;;;;;16.74;67.17;101302.41;5045982;28;9612;-66
2023/07/22 01:21:32;;;;;;;;;13.50;12.00;;;;;16.72;67.24;101299.84;5031071;28;9607;-66
2023/07/22 01:23:59;;;;;;;;;13.50;10.00;;;;;16.73;67.35;101303.44;5031405;28;9681;-67
2023/07/22 01:26:26;;;;;;;;;15.00;12.50;;;;;16.70;67.76;101298.44;5049312;28;9517;-67
2023/07/22 01:29:04;;;;;;;;;17.00;13.50;;;;;16.70;67.56;101301.16;5049163;28;9513;-66
2023/07/22 01:31:30;;;;;;;;;20.00;16.00;;;;;16.70;67.93;101296.53;5032245;28;9690;-67
2023/07/22 01:33:58;;;;;;;;;18.00;17.00;;;;;16.70;68.13;101298.44;5031369;28;9950;-67
2023/07/22 01:36:25;;;;;;;;;15.50;14.75;;;;;16.69;67.84;101300.31;5048879;28;10547;-67
2023/07/22 01:38:52;;;;;;;;;15.00;14.75;;;;;16.70;68.20;101290.28;5031036;28;9586;-66
2023/07/22 01:41:18;;;;;;;;;14.00;12.25;;;;;16.72;68.42;101286.25;5046029;28;9599;-66
2023/07/22 01:43:45;;;;;;;;;16.50;16.50;;;;;16.71;68.49;101286.50;5030846;28;9693;-66
2023/07/22 01:46:12;;;;;;;;;17.50;15.50;;;;;16.70;68.76;101293.00;5027673;28;9904;-67
2023/07/22 01:48:38;;;;;;;;;22.00;19.25;;;;;16.69;68.87;101284.00;5032098;28;9749;-66
2023/07/22 01:51:05;;;;;;;;;14.50;14.50;;;;;16.70;68.72;101274.78;5008080;28;9793;-66
2023/07/22 01:53:32;;;;;;;;;19.00;17.50;;;;;16.69;68.81;101285.88;5046209;28;9673;-66
2023/07/22 01:55:59;;;;;;;;;22.75;19.00;;;;;16.66;69.04;101275.47;5031085;28;9852;-66
2023/07/22 01:58:26;;;;;;;;;19.25;19.25;;;;;16.64;69.14;101280.28;5034289;28;9832;-67
2023/07/22 02:00:52;;;;;;;;;22.00;18.25;;;;;16.63;69.46;101284.06;5032995;28;9819;-66
2023/07/22 02:03:20;;;;;;;;;10.75;10.75;;;;;16.64;69.35;101280.28;5036418;28;9853;-66
2023/07/22 02:05:47;;;;;;;;;21.75;18.00;;;;;16.64;69.40;101286.53;5039576;28;9765;-67
2023/07/22 02:08:13;;;;;;;;;18.00;16.25;;;;;16.62;69.75;101280.50;5034351;28;9639;-67
2023/07/22 02:10:40;;;;;;;;;17.75;17.75;;;;;16.61;69.13;101278.00;5034217;28;9758;-66
2023/07/22 02:13:06;;;;;;;;;18.25;16.00;;;;;16.59;69.21;101275.53;5034489;28;9770;-66
2023/07/22 02:15:32;;;;;;;;;16.25;15.50;;;;;16.57;69.71;101269.50;5065121;28;10482;-66
2023/07/22 02:17:59;;;;;;;;;23.25;22.00;;;;;16.54;69.52;101270.75;5034460;28;9751;-66
2023/07/22 02:20:28;;;;;;;;;22.00;19.25;;;;;16.52;69.59;101272.03;5030068;28;9830;-67
2023/07/22 02:22:55;;;;;;;;;13.75;13.50;;;;;16.51;69.61;101260.31;5050863;28;9789;-67
2023/07/22 02:25:22;;;;;;;;;24.00;21.75;;;;;16.48;69.60;101271.63;5051307;28;9858;-67
2023/07/22 02:27:48;;;;;;;;;24.50;20.50;;;;;16.48;69.66;101260.75;5033108;28;9939;-67
2023/07/22 02:30:15;;;;;;;;;17.75;17.75;;;;;16.45;69.98;101263.13;5035391;28;10619;-66
2023/07/22 02:32:42;;;;;;;;;14.50;14.50;;;;;16.46;69.98;101262.06;5051982;28;9912;-66
2023/07/22 02:35:09;;;;;;;;;22.00;19.25;;;;;16.46;69.84;101256.63;5032771;28;10453;-67
2023/07/22 02:37:37;;;;;;;;;16.75;15.25;;;;;16.47;69.37;101261.81;5043758;28;10058;-66
2023/07/22 02:40:07;;;;;;;;;17.00;16.25;;;;;16.43;69.64;101252.47;5051279;28;9870;-66
2023/07/22 02:42:35;;;;;;;;;18.00;18.00;;;;;16.44;69.82;101245.13;5050110;28;9839;-66
2023/07/22 02:45:03;;;;;;;;;17.50;14.50;;;;;16.40;69.59;101252.91;5034153;28;10028;-67
2023/07/22 02:47:30;;;;;;;;;17.00;16.25;;;;;16.39;69.61;101248.53;5032652;28;9782;-67
2023/07/22 02:49:56;;;;;;;;;16.75;14.00;;;;;16.40;69.65;101247.47;5049287;28;9874;-66
2023/07/22 02:52:23;;;;;;;;;17.25;17.25;;;;;16.41;69.38;101245.59;5032739;28;9598;-66
2023/07/22 02:55:11;;;;;;;;;17.00;15.75;;;;;16.42;69.16;101241.81;5050160;28;9760;-66
2023/07/22 02:57:38;;;;;;;;;13.00;12.50;;;;;16.40;69.25;101250.19;5050356;28;9566;-67
2023/07/22 03:00:07;;;;;;;;;12.75;12.50;;;;;16.39;68.88;101250.41;5031297;28;9690;-67
2023/07/22 03:02:35;;;;;;;;;13.25;12.25;;;;;16.38;68.98;101251.47;5049067;28;9795;-66
2023/07/22 03:05:06;;;;;;;;;18.25;15.00;;;;;16.35;69.16;101252.75;5033176;28;9702;-67
2023/07/22 03:07:37;;;;;;;;;13.75;13.00;;;;;16.35;68.93;101254.63;5051717;28;9756;-66
2023/07/22 03:10:05;;;;;;;;;20.75;19.00;;;;;16.33;69.22;101254.88;5051362;28;9720;-66
2023/07/22 03:12:32;;;;;;;;;21.75;16.00;;;;;16.32;68.67;101250.47;5031698;28;9900;-67
2023/07/22 03:14:59;;;;;;;;;11.75;11.50;;;;;16.32;69.02;101259.44;5048866;28;9933;-66
2023/07/22 03:17:26;;;;;;;;;15.25;15.25;;;;;16.32;68.97;101251.28;5050370;28;10644;-66
2023/07/22 03:19:52;;;;;;;;;16.50;13.50;;;;;16.31;69.32;101249.63;5032840;28;9742;-66
2023/07/22 03:22:19;;;;;;;;;13.25;13.25;;;;;16.31;68.58;101256.94;5032109;28;9766;-66
2023/07/22 03:24:45;;;;;;;;;16.00;15.00;;;;;16.31;68.76;101263.22;5040121;28;9802;-66
2023/07/22 03:27:13;;;;;;;;;13.50;11.50;;;;;16.31;68.72;101262.38;5030393;28;9930;-66
2023/07/22 03:29:41;;;;;;;;;16.50;15.50;;;;;16.31;68.88;101263.22;5045048;28;9832;-66
2023/07/22 03:32:07;;;;;;;;;11.50;10.50;;;;;16.31;69.07;101254.25;5015916;28;10488;-67
2023/07/22 03:34:34;;;;;;;;;16.75;15.00;;;;;16.31;69.15;101255.06;5048600;28;9579;-66
2023/07/22 03:37:01;;;;;;;;;14.50;13.25;;;;;16.30;69.13;101258.00;5016304;28;9839;-66
2023/07/22 03:39:27;;;;;;;;;13.00;12.75;;;;;16.29;68.93;101259.91;5051073;28;9683;-67
2023/07/22 03:41:54;;;;;;;;;15.50;12.75;;;;;16.30;69.10;101258.00;5028093;28;9767;-66
2023/07/22 03:44:20;;;;;;;;;15.00;14.25;;;;;16.27;69.13;101256.56;5032413;28;9604;-66
2023/07/22 03:46:47;;;;;;;;;21.50;14.25;;;;;16.25;69.02;101261.41;5050739;28;10966;-66
2023/07/22 03:49:13;;;;;;;;;12.50;10.75;;;;;16.21;69.06;101256.63;5041657;28;9704;-66
2023/07/22 03:51:40;;;;;;;;;11.50;10.50;;;;;16.21;69.00;101267.50;5043323;28;9511;-67
2023/07/22 03:54:06;;;;;;;;;19.25;16.00;;;;;16.21;69.15;101265.63;5028561;28;9741;-67
2023/07/22 03:56:33;;;;;;;;;15.50;14.25;;;;;16.20;69.13;101273.97;5032259;28;9922;-66
2023/07/22 03:59:00;;;;;;;;;14.00;10.75;;;;;16.21;69.22;101271.03;5040671;28;9686;-67
2023/07/22 04:01:26;;;;;;;;;8.50;8.50;;;;;16.22;68.89;101275.41;5030764;28;9625;-67
2023/07/22 04:03:53;;;;;;;;;11.75;10.25;;;;;16.23;69.21;101271.63;5048685;28;9657;-66
2023/07/22 04:06:19;;;;;;;;;19.00;17.00;;;;;16.23;68.83;101266.22;5036458;28;9594;-67
2023/07/22 04:08:46;;;;;;;;;11.50;10.25;;;;;16.21;68.83;101265.63;5055062;28;9765;-67
2023/07/22 04:11:14;;;;;;;;;11.25;11.00;;;;;16.22;68.88;101255.56;5043980;28;9677;-66
2023/07/22 04:13:40;;;;;;;;;11.50;11.00;;;;;16.19;68.74;101259.56;5031093;28;9687;-67
2023/07/22 04:16:07;;;;;;;;;8.00;8.00;;;;;16.22;68.93;101259.13;5050266;28;10299;-67
2023/07/22 04:18:34;;;;;;;;;14.00;12.00;;;;;16.21;68.91;101264.78;5015096;28;9555;-66
2023/07/22 04:21:01;;;;;;;;;12.75;12.00;;;;;16.20;69.00;101263.94;5049646;28;9695;-66
2023/07/22 04:23:28;;;;;;;;;13.25;11.75;;;;;16.20;68.77;101258.50;5027258;28;9563;-66
2023/07/22 04:25:54;;;;;;;;;13.75;12.25;;;;;16.18;68.67;101266.03;5032815;28;9597;-67
2023/07/22 04:28:21;;;;;;;;;13.00;13.00;;;;;16.20;68.87;101263.09;5032326;28;9511;-67
2023/07/22 04:30:56;;;;;;;;;18.25;14.75;;;;;16.17;68.83;101269.81;5023226;28;9748;-66
2023/07/22 04:33:22;;;;;;;;;12.25;11.00;;;;;16.17;69.10;101266.28;5050422;28;9864;-66
2023/07/22 04:35:49;;;;;;;;;11.50;9.75;;;;;16.17;68.79;101272.53;5031593;28;9625;-66
2023/07/22 04:38:15;;;;;;;;;17.00;15.50;;;;;16.15;68.85;101268.38;5028129;28;9762;-66
2023/07/22 04:40:44;;;;;;;;;12.00;12.00;;;;;16.15;69.16;101265.66;5047171;28;9687;-66
2023/07/22 04:43:12;;;;;;;;;11.75;10.50;;;;;16.13;68.73;101267.78;5049402;28;9657;-66
2023/07/22 04:45:41;;;;;;;;;11.50;9.75;;;;;16.10;69.34;101262.78;5049631;28;9673;-66
2023/07/22 04:48:07;;;;;;;;;16.00;13.25;;;;;16.10;69.46;101258.16;5049508;28;9454;-66
2023/07/22 04:50:33;;;;;;;;;12.00;10.00;;;;;16.10;69.69;101249.19;5045430;28;9605;-66
2023/07/22 04:53:00;;;;;;;;;12.25;11.50;;;;;16.05;69.51;101253.41;5049044;28;9597;-66
2023/07/22 04:55:29;;;;;;;;;11.25;10.25;;;;;16.03;69.81;101250.06;5049037;28;9593;-66
2023/07/22 04:57:56;;;;;;;;;9.50;9.25;;;;;16.05;69.66;101255.28;5031821;28;9559;-67
2023/07/22 05:00:22;;;;;;;;;12.00;9.75;;;;;16.09;69.51;101256.50;5042765;28;9609;-66
2023/07/22 05:02:50;;;;;;;;;9.25;8.00;;;;;16.09;69.47;101256.50;5048121;28;9443;-66
2023/07/22 05:05:16;;;;;;;;;7.50;7.50;;;;;16.12;69.64;101258.78;5031379;28;9549;-67
2023/07/22 05:07:43;;;;;;;;;10.50;10.25;;;;;16.15;69.28;101255.63;5029504;28;9448;-66
2023/07/22 05:10:11;;;;;;;;;17.50;10.25;;;;;16.15;69.61;101260.22;5048158;28;10423;-67
2023/07/22 05:12:39;;;;;;;;;11.00;10.00;;;;;16.12;69.74;101256.06;5048785;28;9509;-67
2023/07/22 05:15:06;;;;;;;;;10.00;9.50;;;;;16.10;69.70;101252.75;5049263;28;9380;-66
2023/07/22 05:17:33;;;;;;;;;9.75;9.00;;;;;16.12;70.11;101249.78;5029448;28;9470;-66
2023/07/22 05:19:59;;;;;;;;;8.67;6.67;;;;;16.14;70.46;101248.53;5052078;28;9470;-66
2023/07/22 05:22:26;;;;;;;;;5.50;4.00;;;;;16.17;70.28;101258.97;5049556;28;9395;-67
2023/07/22 05:24:52;;;;;;;;;10.50;9.50;;;;;16.16;69.97;101251.00;5053353;28;9699;-67
2023/07/22 05:27:19;;;;;;;;;6.75;6.75;;;;;16.15;70.23;101258.34;5053369;28;9524;-67
2023/07/22 05:29:45;;;;;;;;;10.25;8.50;;;;;16.14;70.47;101253.97;5053674;28;9627;-67
2023/07/22 05:32:13;;;;;;;;;5.67;4.33;;;;;16.14;70.19;101253.97;5046985;28;10502;-67
2023/07/22 05:34:58;;;;;;;;;6.00;6.00;;;;;16.18;70.21;101251.63;5061027;28;9444;-67
2023/07/22 05:37:25;;;;;;;;;6.00;6.00;;;;;16.19;70.49;101247.88;5062885;28;9455;-67
2023/07/22 05:39:51;;;;;;;;;6.00;6.00;;;;;16.22;70.38;101250.97;5038201;28;9550;-67
2023/07/22 05:42:18;;;;;;;;;7.50;7.00;;;;;16.20;69.92;101250.34;5058224;28;9504;-68
2023/07/22 05:44:44;;;;;;;;;10.00;6.50;;;;;16.19;70.30;101254.13;5039744;28;9728;-67
2023/07/22 05:47:11;;;;;;;;;5.00;5.00;;;;;16.20;70.61;101250.34;5048003;28;9486;-67
2023/07/22 05:49:38;;;;;;;;;8.00;7.25;;;;;16.24;70.55;101258.88;5032663;28;9468;-67
2023/07/22 05:52:05;;;;;;;;;7.00;6.33;;;;;16.28;70.27;101250.06;5047014;28;9500;-67
2023/07/22 05:54:31;;;;;;;;;8.00;8.00;;;;;16.31;70.68;101252.34;5049747;28;9470;-66
2023/07/22 05:56:58;;;;;;;;;12.50;8.25;;;;;16.34;70.58;101252.97;5050357;28;9514;-66
2023/07/22 05:59:24;;;;;;;;;9.00;8.50;;;;;16.32;70.74;101251.28;5061153;28;9596;-66
2023/07/22 06:01:51;;;;;;;;;10.25;8.00;;;;;16.32;71.14;101245.84;5037008;28;10337;-67
2023/07/22 06:04:17;;;;;;;;;7.50;6.25;;;;;16.36;71.34;101248.13;5049235;28;9573;-66
2023/07/22 06:06:44;;;;;;;;;5.75;5.00;;;;;16.36;70.99;101246.25;5033084;28;9484;-67
2023/07/22 06:09:10;;;;;;;;;7.00;7.00;;;;;16.42;71.42;101244.53;5047790;28;10391;-66
2023/07/22 06:11:37;;;;;;;;;9.75;8.00;;;;;16.49;71.37;101245.31;5055733;28;9564;-67
2023/07/22 06:14:03;;;;;;;;;6.00;6.00;;;;;16.53;71.23;101241.94;5046635;28;9368;-68
2023/07/22 06:16:30;;;;;;;;;10.75;8.50;;;;;16.59;71.55;101250.22;5029173;28;9531;-67
2023/07/22 06:18:56;;;;;;;;;12.00;10.25;;;;;16.59;71.40;101247.50;5030933;28;9655;-66
2023/07/22 06:21:23;;;;;;;;;9.25;9.25;;;;;16.65;71.70;101254.75;5055265;28;9550;-67
2023/07/22 06:23:50;;;;;;;;;7.67;6.00;;;;;16.68;71.44;101243.44;5028102;28;9551;-67
2023/07/22 06:26:16;;;;;;;;;10.00;10.00;;;;;16.69;71.96;101245.94;5050307;28;9550;-67
2023/07/22 06:28:44;;;;;;;;;13.25;12.25;;;;;16.72;71.67;101241.94;5050415;28;9554;-67
2023/07/22 06:31:10;;;;;;;;;17.75;16.50;;;;;16.70;72.18;101239.44;5050883;28;10297;-67
2023/07/22 06:33:37;;;;;;;;;11.50;10.75;;;;;16.74;72.10;101237.16;5049282;28;9543;-67
2023/07/22 06:36:03;;;;;;;;;11.00;11.00;;;;;16.78;72.42;101235.63;5031568;28;9530;-67
2023/07/22 06:38:30;;;;;;;;;11.50;11.00;;;;;16.80;72.29;101222.63;5053772;28;9468;-67
2023/07/22 06:40:57;;;;;;;;;12.00;12.00;;;;;16.82;72.75;101236.03;5016047;28;9620;-67
2023/07/22 06:43:23;;;;;;;;;13.75;12.50;;;;;16.82;72.77;101227.88;5038067;28;9452;-67
2023/07/22 06:45:50;;;;;;;;;16.75;15.25;;;;;16.82;72.77;101219.72;5051682;28;9496;-67
2023/07/22 06:48:17;;;;;;;;;15.25;14.50;;;;;16.83;72.96;101221.38;5051229;28;9627;-68
2023/07/22 06:50:48;;;;;;;;;21.00;16.25;;;;;16.80;73.57;101223.47;5048610;28;9549;-67
2023/07/22 06:53:15;;;;;;;;;10.50;10.50;;;;;16.84;73.98;101225.75;5043802;28;9535;-67
2023/07/22 06:55:49;;;;;;;;;18.50;14.00;;;;;16.87;73.42;101225.28;5053436;28;9584;-67
2023/07/22 06:58:15;;;;;;;;;14.00;11.50;;;;;16.89;73.94;101223.16;5050100;28;10257;-67
2023/07/22 07:00:42;;;;;;;;;14.75;14.50;;;;;16.91;73.89;101223.78;5049756;28;9687;-66
2023/07/22 07:03:09;;;;;;;;;19.75;17.00;;;;;16.90;73.87;101222.97;5050900;28;9569;-66
2023/07/22 07:05:35;;;;;;;;;14.75;14.75;;;;;16.91;74.22;101229.22;5051533;28;10521;-67
2023/07/22 07:08:03;;;;;;;;;12.75;11.00;;;;;16.93;74.15;101229.81;5033638;28;10497;-67
2023/07/22 07:10:30;;;;;;;;;10.25;10.00;;;;;16.96;74.44;101223.94;5051075;28;9625;-67
2023/07/22 07:12:56;;;;;;;;;17.50;13.75;;;;;16.96;74.83;101221.19;5051395;28;9642;-66
2023/07/22 07:15:23;;;;;;;;;19.75;16.00;;;;;16.95;75.20;101233.97;5051270;28;9666;-67
2023/07/22 07:17:49;;;;;;;;;16.00;15.00;;;;;16.98;75.32;101228.09;5051448;28;9597;-68
2023/07/22 07:20:16;;;;;;;;;18.00;13.50;;;;;17.00;75.24;101227.84;5049733;28;9666;-68
2023/07/22 07:22:43;;;;;;;;;11.33;11.00;;;;;17.03;75.50;101238.28;5049668;28;9527;-66
2023/07/22 07:25:10;;;;;;;;;20.50;18.25;;;;;17.10;75.54;101235.50;5033048;28;9525;-67
2023/07/22 07:27:37;;;;;;;;;22.25;20.00;;;;;17.06;76.00;101232.41;5050471;28;10108;-67
2023/07/22 07:30:05;;;;;;;;;17.25;14.00;;;;;17.10;75.96;101230.88;5051196;28;9885;-67
2023/07/22 07:32:33;;;;;;;;;14.75;14.75;;;;;17.12;76.34;101226.03;5055816;28;9438;-67
2023/07/22 07:35:00;;;;;;;;;19.00;19.00;;;;;17.14;75.82;101223.94;5055012;28;9594;-68
2023/07/22 07:37:26;;;;;;;;;21.00;18.50;;;;;17.15;76.12;101225.59;5050183;28;9430;-68
2023/07/22 07:39:53;;;;;;;;;18.75;17.00;;;;;17.15;76.50;101224.75;5032167;28;9511;-68
2023/07/22 07:42:19;;;;;;;;;27.25;24.75;;;;;17.12;76.64;101222.47;5049751;28;9743;-68
2023/07/22 07:44:46;;;;;;;;;28.00;25.25;;;;;17.12;76.52;101223.31;5030654;28;10581;-66
2023/07/22 07:47:12;;;;;;;;;30.75;24.25;;;;;17.10;76.53;101220.00;5046086;28;9853;-67
2023/07/22 07:49:40;;;;;;;;;26.50;20.50;;;;;17.09;76.49;101223.75;5050842;28;9760;-68
2023/07/22 07:52:06;;;;;;;;;19.75;19.00;;;;;17.13;76.41;101219.53;5034171;28;9708;-67
2023/07/22 07:54:33;;;;;;;;;18.75;17.75;;;;;17.18;77.06;101221.59;5049827;28;9576;-67
2023/07/22 07:56:59;;;;;;;;;25.25;22.75;;;;;17.19;76.37;101218.63;5049930;28;9734;-68
2023/07/22 07:59:26;;;;;;;;;25.75;21.25;;;;;17.19;76.65;101226.78;5050036;28;9802;-67
2023/07/22 08:01:52;;;;;;;;;26.50;21.75;;;;;17.19;76.79;101215.06;5049968;28;9554;-68
2023/07/22 08:04:19;;;;;;;;;27.25;24.00;;;;;17.19;76.68;101210.47;5050366;28;9815;-67
2023/07/22 08:06:46;;;;;;;;;18.75;17.50;;;;;17.26;76.54;101218.53;5050283;28;9831;-68
2023/07/22 08:09:18;;;;;;;;;18.67;17.00;;;;;17.34;76.45;101214.66;5050213;28;9549;-67
2023/07/22 08:11:45;;;;;;;;;24.50;23.25;;;;;17.33;76.12;101213.81;5049975;28;9482;-67
2023/07/22 08:14:12;;;;;;;;;24.50;18.75;;;;;17.35;76.33;101216.34;5032411;28;9682;-68
2023/07/22 08:16:38;;;;;;;;;17.75;15.25;;;;;17.33;76.15;101210.28;5050000;28;9406;-66
2023/07/22 08:19:04;;;;;;;;;15.75;14.00;;;;;17.36;76.09;101207.09;5050019;28;9605;-67
2023/07/22 08:21:31;;;;;;;;;22.75;17.25;;;;;17.38;75.86;101214.00;5049321;28;9461;-68
2023/07/22 08:23:58;;;;;;;;;20.25;15.75;;;;;17.43;75.87;101205.97;5049978;28;9510;-67
2023/07/22 08:26:25;;;;;;;;;19.75;17.50;;;;;17.53;75.70;101217.09;5065194;28;9807;-67
2023/07/22 08:28:52;;;;;;;;;23.00;20.75;;;;;17.48;75.96;101208.81;5049872;28;9791;-67
2023/07/22 08:31:18;;;;;;;;;19.75;16.25;;;;;17.57;75.35;101212.03;5048412;28;9599;-67
2023/07/22 08:33:45;;;;;;;;;17.75;17.75;;;;;17.65;74.97;101199.97;5031812;28;9656;-68
2023/07/22 08:36:11;;;;;;;;;18.50;16.75;;;;;17.70;74.91;101195.53;5049937;28;9560;-66
2023/07/22 08:38:38;;;;;;;;;20.75;20.50;;;;;17.77;74.46;101207.16;5032097;28;9596;-67
2023/07/22 08:41:04;;;;;;;;;21.50;18.00;;;;;17.70;74.28;101203.69;5049191;28;9537;-68
2023/07/22 08:43:34;;;;;;;;;17.00;15.00;;;;;17.82;73.88;101206.44;5050500;28;9749;-67
2023/07/22 08:46:01;;;;;;;;;13.75;12.50;;;;;17.87;73.58;101203.06;5052669;28;9605;-66
2023/07/22 08:48:34;;;;;;;;;19.00;18.00;;;;;17.90;72.70;101202.56;5047501;28;9381;-67
2023/07/22 08:51:09;;;;;;;;;20.75;17.75;;;;;17.90;72.54;101200.66;5046562;28;9611;-67
2023/07/22 08:53:37;;;;;;;;;14.75;14.75;;;;;17.90;72.50;101194.38;5045639;28;9542;-67
2023/07/22 08:56:04;;;;;;;;;22.50;19.75;;;;;17.87;71.85;101194.88;5048787;28;9446;-66
2023/07/22 08:58:31;;;;;;;;;20.25;16.00;;;;;17.86;72.20;101193.19;5047157;28;10215;-66
2023/07/22 09:00:59;;;;;;;;;17.75;17.75;;;;;17.83;72.85;101193.69;5049090;28;9661;-69
2023/07/22 09:03:26;;;;;;;;;22.25;21.50;;;;;17.74;73.03;101204.91;5049317;28;9377;-66
2023/07/22 09:05:53;;;;;;;;;15.00;14.75;;;;;17.49;73.70;101218.63;5048086;28;9500;-67
2023/07/22 09:08:20;;;;;;;;;8.00;8.00;;;;;17.35;73.92;101219.06;5049685;28;9515;-65
2023/07/22 09:10:48;;;;;;;;;6.00;6.00;;;;;17.26;73.51;101219.38;5031213;28;9236;-66
2023/07/22 09:13:15;;;;;;;;;10.00;10.00;;;;;17.15;73.72;101220.13;5031781;28;9224;-66
2023/07/22 09:15:42;;;;;;;;;15.00;15.00;;;;;17.01;74.31;101224.94;5049512;28;9169;-66
2023/07/22 09:18:09;;;;;;;;;10.00;9.00;;;;;16.95;75.49;101225.00;5049412;28;10052;-66
2023/07/22 09:20:35;;;;;;;;;11.50;11.50;;;;;16.95;75.38;101225.00;5049116;28;9438;-67
2023/07/22 09:23:02;;;;;;;;;8.00;7.33;;;;;17.02;75.84;101229.28;5049305;28;9469;-67
2023/07/22 09:25:40;;;;;;;;;9.00;9.00;;;;;17.10;75.82;101230.06;5049537;28;9430;-66
2023/07/22 09:28:07;;;;;;;;;7.67;7.00;;;;;17.14;75.85;101229.38;5049374;28;9312;-67
2023/07/22 09:30:36;;;;;;;;;11.00;7.00;;;;;17.16;75.66;101224.50;5049091;28;9359;-66
2023/07/22 09:33:04;;;;;;;;;7.00;7.00;;;;;17.17;76.17;101225.34;5049720;28;9324;-66
2023/07/22 09:35:44;;;;;;;;;6.67;6.67;;;;;17.20;75.77;101224.88;5031886;28;9318;-66
2023/07/22 09:38:11;;;;;;;;;9.00;7.00;;;;;17.19;75.73;101231.41;5029864;28;9296;-66
2023/07/22 09:40:40;;;;;;;;;9.00;9.00;;;;;17.21;75.78;101224.66;5011339;28;9382;-66
2023/07/22 09:43:10;;;;;;;;;10.00;10.00;;;;;17.17;75.99;101231.59;5029283;28;9463;-68
2023/07/22 09:45:39;;;;;;;;;10.33;9.67;;;;;17.11;76.10;101231.72;5011745;28;9473;-66
2023/07/22 09:48:09;;;;;;;;;9.00;9.00;;;;;17.09;76.00;101231.91;5047987;28;9456;-67
2023/07/22 09:50:36;;;;;;;;;8.75;8.25;;;;;16.97;75.17;101228.31;5048895;28;9364;-66
2023/07/22 09:53:04;;;;;;;;;7.33;5.33;;;;;16.94;75.25;101235.03;5049010;28;9449;-66
2023/07/22 09:55:32;;;;;;;;;6.33;6.33;;;;;16.96;75.01;101230.19;5048955;28;9355;-67
2023/07/22 09:58:00;;;;;;;;;6.33;5.67;;;;;16.98;75.04;101216.38;5049243;28;9311;-67
2023/07/22 10:00:33;;;;;;;;;6.00;4.00;;;;;16.99;74.75;101220.75;5031402;28;9213;-66
2023/07/22 10:03:04;;;;;;;;;3.50;3.50;;;;;17.01;75.14;101221.34;5049299;28;9301;-67
2023/07/22 10:05:34;;;;;;;;;4.33;4.33;;;;;17.10;74.91;101221.91;5015148;28;9483;-66
2023/07/22 10:08:06;;;;;;;;;5.00;5.00;;;;;17.19;74.94;101218.63;5046032;28;9392;-67
2023/07/22 10:10:34;;;;;;;;;5.00;5.00;;;;;17.32;74.59;101216.78;5064396;28;9282;-67
2023/07/22 10:13:01;;;;;;;;;4.67;4.67;;;;;17.43;74.18;101216.00;5050868;28;9125;-67
2023/07/22 10:15:30;;;;;;;;;3.67;3.67;;;;;17.50;74.15;101214.88;5052295;28;9235;-67
2023/07/22 10:17:57;;;;;;;;;6.67;4.00;;;;;17.59;74.13;101218.09;5033720;28;9091;-67
2023/07/22 10:20:24;;;;;;;;;4.00;4.00;;;;;17.63;73.90;101216.56;5051578;28;9260;-67
2023/07/22 10:22:51;;;;;;;;;7.00;5.67;;;;;17.63;73.88;101221.19;5017538;28;9244;-67
2023/07/22 10:25:19;;;;;;;;;3.67;3.67;;;;;17.66;73.78;101217.97;5052119;28;9193;-67
2023/07/22 10:27:47;;;;;;;;;3.00;3.00;;;;;17.65;73.56;101222.59;5052034;28;9158;-67
2023/07/22 10:30:15;;;;;;;;;4.67;3.00;;;;;17.65;73.02;101222.59;5052114;28;9220;-67
2023/07/22 10:32:45;;;;;;;;;6.00;3.67;;;;;17.66;72.95;101224.28;5052050;28;9157;-66
2023/07/22 10:35:23;;;;;;;;;5.00;4.00;;;;;17.61;72.85;101232.28;5051570;28;9161;-67
2023/07/22 10:37:52;;;;;;;;;4.67;4.67;;;;;17.51;72.33;101257.34;5033870;28;9046;-67
2023/07/22 10:40:19;;;;;;;;;6.67;3.33;;;;;17.28;72.90;101254.50;5051295;28;9168;-66
2023/07/22 10:42:56;;;;;;;;;5.33;5.33;;;;;17.07;74.32;101253.09;5051988;28;9182;-67
2023/07/22 10:45:33;;;;;;;;;5.33;4.33;;;;;16.99;75.00;101256.94;5051869;28;9169;-67
2023/07/22 10:48:01;;;;;;;;;5.00;5.00;;;;;16.95;75.44;101257.63;5067432;28;9154;-67
2023/07/22 10:50:48;;;;;;;;;3.67;3.00;;;;;16.93;76.03;101249.66;5051612;28;9468;-67
2023/07/22 10:53:24;;;;;;;;;8.00;8.00;;;;;16.96;75.97;101246.50;5034263;28;9313;-67
2023/07/22 10:56:02;;;;;;;;;4.00;4.00;;;;;16.88;76.11;101245.97;5051581;28;9303;-67
2023/07/22 10:58:52;;;;;;;;;3.00;3.00;;;;;16.92;76.14;101241.75;5051951;28;9352;-67
2023/07/22 11:01:27;;;;;;;;;3.00;3.00;;;;;16.95;76.24;101242.13;5038495;28;9253;-67
2023/07/22 11:04:16;;;;;;;;;4.33;4.33;;;;;16.96;76.16;101240.25;5051526;28;9160;-66
2023/07/22 11:06:49;;;;;;;;;3.00;3.00;;;;;16.96;76.03;101241.06;5051169;28;10047;-67
2023/07/22 11:09:28;;;;;;;;;3.00;3.00;;;;;16.97;75.92;101237.28;5051418;28;9219;-67
2023/07/22 11:12:05;;;;;;;;;4.67;3.00;;;;;17.02;76.20;101231.19;5050823;28;9251;-67
2023/07/22 11:14:53;;;;;;;;;6.00;4.33;;;;;17.10;75.97;101233.59;5051222;28;9209;-67
2023/07/22 11:17:30;;;;;;;;;3.00;2.00;;;;;17.21;75.81;101224.66;5033131;28;9263;-67
2023/07/22 11:19:59;;;;;;;;;4.00;4.00;;;;;17.29;75.92;101235.22;5050498;28;9421;-66
2023/07/22 11:22:29;;;;;;;;;3.33;2.33;;;;;17.39;75.74;101221.09;5050771;28;9251;-67
2023/07/22 11:24:57;;;;;;;;;6.00;4.33;;;;;17.52;75.90;101220.06;5032977;28;9000;-67